sensor_id;sensor_type;location;lat;lon;timestamp;P1;durP1;ratioP1;P2;durP2;ratioP2
68870;SDS011;55906;52.278;6.808;2024-02-23T00:00:08;3.40;;;2.70;;
68870;SDS011;55906;52.278;6.808;2024-02-23T00:02:36;4.22;;;3.20;;
68870;SDS011;55906;52.278;6.808;2024-02-23T00:05:03;3.42;;;3.13;;
68870;SDS011;55906;52.278;6.808;2024-02-23T00:07:30;4.15;;;3.08;;
68870;SDS011;55906;52.278;6.808;2024-02-23T00:09:57;3.75;;;3.42;;
68870;SDS011;55906;52.278;6.808;2024-02-23T00:12:25;3.30;;;2.88;;
68870;SDS011;55906;52.278;6.808;2024-02-23T00:15:02;3.90;;;3.00;;
68870;SDS011;55906;52.278;6.808;2024-02-23T00:17:29;3.80;;;3.03;;
68870;SDS011;55906;52.278;6.808;2024-02-23T00:19:56;3.40;;;3.00;;
68870;SDS011;55906;52.278;6.808;2024-02-23T00:22:23;3.60;;;3.13;;
68870;SDS011;55906;52.278;6.808;2024-02-23T00:24:50;4.00;;;2.75;;
68870;SDS011;55906;52.278;6.808;2024-02-23T00:27:17;5.47;;;3.85;;
68870;SDS011;55906;52.278;6.808;2024-02-23T00:29:45;4.05;;;3.65;;
68870;SDS011;55906;52.278;6.808;2024-02-23T00:32:12;4.47;;;3.58;;
68870;SDS011;55906;52.278;6.808;2024-02-23T00:34:39;3.80;;;3.40;;
68870;SDS011;55906;52.278;6.808;2024-02-23T00:37:05;4.13;;;3.30;;
68870;SDS011;55906;52.278;6.808;2024-02-23T00:39:33;4.10;;;3.17;;
68870;SDS011;55906;52.278;6.808;2024-02-23T00:41:59;3.60;;;3.15;;
68870;SDS011;55906;52.278;6.808;2024-02-23T00:44:26;4.43;;;4.03;;
68870;SDS011;55906;52.278;6.808;2024-02-23T00:46:54;4.77;;;4.27;;
68870;SDS011;55906;52.278;6.808;2024-02-23T00:49:22;3.95;;;3.38;;
68870;SDS011;55906;52.278;6.808;2024-02-23T00:51:49;5.38;;;3.90;;
68870;SDS011;55906;52.278;6.808;2024-02-23T00:54:16;4.63;;;4.13;;
68870;SDS011;55906;52.278;6.808;2024-02-23T00:56:43;4.88;;;4.05;;
68870;SDS011;55906;52.278;6.808;2024-02-23T00:59:10;5.03;;;3.95;;
68870;SDS011;55906;52.278;6.808;2024-02-23T01:01:37;4.88;;;4.30;;
68870;SDS011;55906;52.278;6.808;2024-02-23T01:04:05;5.63;;;3.83;;
68870;SDS011;55906;52.278;6.808;2024-02-23T01:06:31;5.97;;;4.18;;
68870;SDS011;55906;52.278;6.808;2024-02-23T01:08:58;6.05;;;4.53;;
68870;SDS011;55906;52.278;6.808;2024-02-23T01:11:25;7.53;;;3.67;;
68870;SDS011;55906;52.278;6.808;2024-02-23T01:13:52;4.63;;;3.25;;
68870;SDS011;55906;52.278;6.808;2024-02-23T01:16:18;5.22;;;3.67;;
68870;SDS011;55906;52.278;6.808;2024-02-23T01:18:45;6.05;;;3.92;;
68870;SDS011;55906;52.278;6.808;2024-02-23T01:21:13;7.25;;;3.92;;
68870;SDS011;55906;52.278;6.808;2024-02-23T01:23:40;5.15;;;4.07;;
68870;SDS011;55906;52.278;6.808;2024-02-23T01:26:07;5.63;;;3.85;;
68870;SDS011;55906;52.278;6.808;2024-02-23T01:28:34;6.30;;;3.93;;
68870;SDS011;55906;52.278;6.808;2024-02-23T01:31:00;5.95;;;4.85;;
68870;SDS011;55906;52.278;6.808;2024-02-23T01:33:27;8.90;;;4.30;;
68870;SDS011;55906;52.278;6.808;2024-02-23T01:35:54;4.83;;;3.70;;
68870;SDS011;55906;52.278;6.808;2024-02-23T01:38:23;5.78;;;3.60;;
68870;SDS011;55906;52.278;6.808;2024-02-23T01:40:56;10.20;;;4.20;;
68870;SDS011;55906;52.278;6.808;2024-02-23T01:43:22;7.00;;;4.50;;
68870;SDS011;55906;52.278;6.808;2024-02-23T01:45:49;7.13;;;4.38;;
68870;SDS011;55906;52.278;6.808;2024-02-23T01:48:16;6.32;;;4.00;;
68870;SDS011;55906;52.278;6.808;2024-02-23T01:50:43;8.73;;;4.78;;
68870;SDS011;55906;52.278;6.808;2024-02-23T01:53:10;5.77;;;4.33;;
68870;SDS011;55906;52.278;6.808;2024-02-23T01:55:41;6.20;;;3.85;;
68870;SDS011;55906;52.278;6.808;2024-02-23T01:58:08;6.22;;;4.25;;
68870;SDS011;55906;52.278;6.808;2024-02-23T02:00:35;5.23;;;3.80;;
68870;SDS011;55906;52.278;6.808;2024-02-23T02:03:02;5.30;;;3.33;;
68870;SDS011;55906;52.278;6.808;2024-02-23T02:05:29;5.30;;;3.97;;
68870;SDS011;55906;52.278;6.808;2024-02-23T02:07:56;6.13;;;4.20;;
68870;SDS011;55906;52.278;6.808;2024-02-23T02:10:25;6.57;;;4.15;;
68870;SDS011;55906;52.278;6.808;2024-02-23T02:12:53;6.03;;;3.78;;
68870;SDS011;55906;52.278;6.808;2024-02-23T02:15:20;7.10;;;4.22;;
68870;SDS011;55906;52.278;6.808;2024-02-23T02:17:47;8.07;;;4.60;;
68870;SDS011;55906;52.278;6.808;2024-02-23T02:20:14;6.45;;;4.32;;
68870;SDS011;55906;52.278;6.808;2024-02-23T02:22:44;8.18;;;4.53;;
68870;SDS011;55906;52.278;6.808;2024-02-23T02:25:13;6.10;;;4.70;;
68870;SDS011;55906;52.278;6.808;2024-02-23T02:27:40;8.32;;;4.93;;
68870;SDS011;55906;52.278;6.808;2024-02-23T02:30:09;7.90;;;4.57;;
68870;SDS011;55906;52.278;6.808;2024-02-23T02:32:36;7.57;;;5.40;;
68870;SDS011;55906;52.278;6.808;2024-02-23T02:35:03;9.57;;;5.93;;
68870;SDS011;55906;52.278;6.808;2024-02-23T02:37:30;11.48;;;6.38;;
68870;SDS011;55906;52.278;6.808;2024-02-23T02:39:57;8.90;;;6.72;;
68870;SDS011;55906;52.278;6.808;2024-02-23T02:42:24;12.70;;;6.93;;
68870;SDS011;55906;52.278;6.808;2024-02-23T02:44:51;12.60;;;6.80;;
68870;SDS011;55906;52.278;6.808;2024-02-23T02:47:19;10.85;;;6.28;;
68870;SDS011;55906;52.278;6.808;2024-02-23T02:49:45;11.37;;;7.90;;
68870;SDS011;55906;52.278;6.808;2024-02-23T02:52:12;11.10;;;7.75;;
68870;SDS011;55906;52.278;6.808;2024-02-23T02:54:39;11.63;;;7.22;;
68870;SDS011;55906;52.278;6.808;2024-02-23T02:57:06;10.45;;;6.82;;
68870;SDS011;55906;52.278;6.808;2024-02-23T02:59:33;11.38;;;7.28;;
68870;SDS011;55906;52.278;6.808;2024-02-23T03:02:01;11.88;;;6.78;;
68870;SDS011;55906;52.278;6.808;2024-02-23T03:04:29;12.05;;;7.15;;
68870;SDS011;55906;52.278;6.808;2024-02-23T03:06:55;10.93;;;6.37;;
68870;SDS011;55906;52.278;6.808;2024-02-23T03:09:22;8.38;;;5.82;;
68870;SDS011;55906;52.278;6.808;2024-02-23T03:11:49;10.80;;;5.47;;
68870;SDS011;55906;52.278;6.808;2024-02-23T03:14:16;7.17;;;5.37;;
68870;SDS011;55906;52.278;6.808;2024-02-23T03:16:45;10.52;;;5.75;;
68870;SDS011;55906;52.278;6.808;2024-02-23T03:19:14;13.50;;;4.93;;
68870;SDS011;55906;52.278;6.808;2024-02-23T03:21:42;11.32;;;4.75;;
68870;SDS011;55906;52.278;6.808;2024-02-23T03:24:09;7.90;;;4.30;;
68870;SDS011;55906;52.278;6.808;2024-02-23T03:26:36;8.60;;;4.30;;
68870;SDS011;55906;52.278;6.808;2024-02-23T03:29:02;9.90;;;3.72;;
68870;SDS011;55906;52.278;6.808;2024-02-23T03:31:29;8.03;;;3.70;;
68870;SDS011;55906;52.278;6.808;2024-02-23T03:33:56;9.70;;;4.18;;
68870;SDS011;55906;52.278;6.808;2024-02-23T03:36:22;9.50;;;3.88;;
68870;SDS011;55906;52.278;6.808;2024-02-23T03:38:50;8.80;;;4.53;;
68870;SDS011;55906;52.278;6.808;2024-02-23T03:41:17;9.02;;;4.57;;
68870;SDS011;55906;52.278;6.808;2024-02-23T03:43:44;7.85;;;3.10;;
68870;SDS011;55906;52.278;6.808;2024-02-23T03:46:11;11.68;;;4.30;;
68870;SDS011;55906;52.278;6.808;2024-02-23T03:48:39;8.80;;;3.85;;
68870;SDS011;55906;52.278;6.808;2024-02-23T03:51:06;5.70;;;3.85;;
68870;SDS011;55906;52.278;6.808;2024-02-23T03:53:35;7.72;;;4.05;;
68870;SDS011;55906;52.278;6.808;2024-02-23T03:56:03;6.47;;;4.03;;
68870;SDS011;55906;52.278;6.808;2024-02-23T03:58:30;7.00;;;4.22;;
68870;SDS011;55906;52.278;6.808;2024-02-23T04:00:57;7.97;;;4.03;;
68870;SDS011;55906;52.278;6.808;2024-02-23T04:03:23;13.23;;;4.90;;
68870;SDS011;55906;52.278;6.808;2024-02-23T04:05:50;14.73;;;4.38;;
68870;SDS011;55906;52.278;6.808;2024-02-23T04:08:17;7.40;;;4.35;;
68870;SDS011;55906;52.278;6.808;2024-02-23T04:10:43;6.78;;;3.72;;
68870;SDS011;55906;52.278;6.808;2024-02-23T04:13:12;8.50;;;3.83;;
68870;SDS011;55906;52.278;6.808;2024-02-23T04:15:39;7.35;;;3.85;;
68870;SDS011;55906;52.278;6.808;2024-02-23T04:18:06;6.32;;;3.95;;
68870;SDS011;55906;52.278;6.808;2024-02-23T04:20:33;7.97;;;3.90;;
68870;SDS011;55906;52.278;6.808;2024-02-23T04:22:59;6.78;;;3.80;;
68870;SDS011;55906;52.278;6.808;2024-02-23T04:25:26;10.15;;;3.80;;
68870;SDS011;55906;52.278;6.808;2024-02-23T04:27:53;8.13;;;3.80;;
68870;SDS011;55906;52.278;6.808;2024-02-23T04:30:21;7.53;;;3.55;;
68870;SDS011;55906;52.278;6.808;2024-02-23T04:32:48;7.57;;;3.60;;
68870;SDS011;55906;52.278;6.808;2024-02-23T04:35:15;7.32;;;4.10;;
68870;SDS011;55906;52.278;6.808;2024-02-23T04:37:43;8.38;;;4.25;;
68870;SDS011;55906;52.278;6.808;2024-02-23T04:40:10;7.45;;;3.88;;
68870;SDS011;55906;52.278;6.808;2024-02-23T04:42:37;6.38;;;3.42;;
68870;SDS011;55906;52.278;6.808;2024-02-23T04:45:05;6.67;;;3.90;;
68870;SDS011;55906;52.278;6.808;2024-02-23T04:47:34;8.80;;;4.05;;
68870;SDS011;55906;52.278;6.808;2024-02-23T04:50:01;5.03;;;4.07;;
68870;SDS011;55906;52.278;6.808;2024-02-23T04:52:28;8.17;;;4.00;;
68870;SDS011;55906;52.278;6.808;2024-02-23T04:54:55;9.48;;;4.22;;
68870;SDS011;55906;52.278;6.808;2024-02-23T04:57:22;8.27;;;4.30;;
68870;SDS011;55906;52.278;6.808;2024-02-23T04:59:48;6.35;;;3.75;;
68870;SDS011;55906;52.278;6.808;2024-02-23T05:02:15;6.35;;;3.92;;
68870;SDS011;55906;52.278;6.808;2024-02-23T05:04:43;7.32;;;4.00;;
68870;SDS011;55906;52.278;6.808;2024-02-23T05:07:10;7.30;;;4.30;;
68870;SDS011;55906;52.278;6.808;2024-02-23T05:09:37;9.23;;;4.00;;
68870;SDS011;55906;52.278;6.808;2024-02-23T05:12:06;5.97;;;4.07;;
68870;SDS011;55906;52.278;6.808;2024-02-23T05:14:33;5.75;;;3.40;;
68870;SDS011;55906;52.278;6.808;2024-02-23T05:17:00;7.00;;;3.90;;
68870;SDS011;55906;52.278;6.808;2024-02-23T05:19:26;8.15;;;4.13;;
68870;SDS011;55906;52.278;6.808;2024-02-23T05:21:55;5.70;;;3.33;;
68870;SDS011;55906;52.278;6.808;2024-02-23T05:24:21;5.75;;;4.15;;
68870;SDS011;55906;52.278;6.808;2024-02-23T05:26:48;8.73;;;4.22;;
68870;SDS011;55906;52.278;6.808;2024-02-23T05:29:15;7.68;;;4.10;;
68870;SDS011;55906;52.278;6.808;2024-02-23T05:31:45;8.13;;;4.43;;
68870;SDS011;55906;52.278;6.808;2024-02-23T05:34:13;12.53;;;9.27;;
68870;SDS011;55906;52.278;6.808;2024-02-23T05:36:40;11.48;;;4.75;;
68870;SDS011;55906;52.278;6.808;2024-02-23T05:39:08;7.55;;;4.00;;
68870;SDS011;55906;52.278;6.808;2024-02-23T05:41:36;11.03;;;4.33;;
68870;SDS011;55906;52.278;6.808;2024-02-23T05:44:03;10.85;;;4.20;;
68870;SDS011;55906;52.278;6.808;2024-02-23T05:46:30;13.82;;;4.35;;
68870;SDS011;55906;52.278;6.808;2024-02-23T05:48:58;9.50;;;3.90;;
68870;SDS011;55906;52.278;6.808;2024-02-23T05:51:25;8.45;;;3.95;;
68870;SDS011;55906;52.278;6.808;2024-02-23T05:53:54;7.72;;;4.45;;
68870;SDS011;55906;52.278;6.808;2024-02-23T05:56:22;10.88;;;4.38;;
68870;SDS011;55906;52.278;6.808;2024-02-23T05:58:49;9.20;;;4.10;;
68870;SDS011;55906;52.278;6.808;2024-02-23T06:01:16;8.40;;;4.30;;
68870;SDS011;55906;52.278;6.808;2024-02-23T06:03:43;10.32;;;4.32;;
68870;SDS011;55906;52.278;6.808;2024-02-23T06:06:10;7.43;;;4.13;;
68870;SDS011;55906;52.278;6.808;2024-02-23T06:08:37;6.80;;;4.35;;
68870;SDS011;55906;52.278;6.808;2024-02-23T06:11:04;7.78;;;4.57;;
68870;SDS011;55906;52.278;6.808;2024-02-23T06:13:33;8.23;;;4.47;;
68870;SDS011;55906;52.278;6.808;2024-02-23T06:16:00;9.32;;;5.15;;
68870;SDS011;55906;52.278;6.808;2024-02-23T06:18:26;11.27;;;4.38;;
68870;SDS011;55906;52.278;6.808;2024-02-23T06:20:53;8.68;;;4.57;;
68870;SDS011;55906;52.278;6.808;2024-02-23T06:23:20;7.50;;;3.83;;
68870;SDS011;55906;52.278;6.808;2024-02-23T06:25:48;6.03;;;3.92;;
68870;SDS011;55906;52.278;6.808;2024-02-23T06:28:15;7.07;;;3.92;;
68870;SDS011;55906;52.278;6.808;2024-02-23T06:30:44;7.80;;;4.53;;
68870;SDS011;55906;52.278;6.808;2024-02-23T06:33:11;6.55;;;3.50;;
68870;SDS011;55906;52.278;6.808;2024-02-23T06:35:38;9.38;;;4.05;;
68870;SDS011;55906;52.278;6.808;2024-02-23T06:38:04;6.85;;;3.80;;
68870;SDS011;55906;52.278;6.808;2024-02-23T06:40:31;8.32;;;3.53;;
68870;SDS011;55906;52.278;6.808;2024-02-23T06:43:00;9.50;;;4.03;;
68870;SDS011;55906;52.278;6.808;2024-02-23T06:45:27;8.43;;;3.80;;
68870;SDS011;55906;52.278;6.808;2024-02-23T06:47:55;9.53;;;4.13;;
68870;SDS011;55906;52.278;6.808;2024-02-23T06:50:21;9.32;;;4.22;;
68870;SDS011;55906;52.278;6.808;2024-02-23T06:52:48;7.00;;;4.07;;
68870;SDS011;55906;52.278;6.808;2024-02-23T06:55:15;12.40;;;3.80;;
68870;SDS011;55906;52.278;6.808;2024-02-23T06:57:42;9.57;;;3.67;;
68870;SDS011;55906;52.278;6.808;2024-02-23T07:00:10;10.40;;;3.75;;
68870;SDS011;55906;52.278;6.808;2024-02-23T07:02:37;6.18;;;3.30;;
68870;SDS011;55906;52.278;6.808;2024-02-23T07:05:06;4.95;;;3.53;;
68870;SDS011;55906;52.278;6.808;2024-02-23T07:07:33;6.18;;;3.72;;
68870;SDS011;55906;52.278;6.808;2024-02-23T07:10:01;6.63;;;3.58;;
68870;SDS011;55906;52.278;6.808;2024-02-23T07:12:28;6.17;;;2.83;;
68870;SDS011;55906;52.278;6.808;2024-02-23T07:14:55;6.80;;;3.42;;
68870;SDS011;55906;52.278;6.808;2024-02-23T07:17:22;10.45;;;4.28;;
68870;SDS011;55906;52.278;6.808;2024-02-23T07:19:49;9.67;;;3.53;;
68870;SDS011;55906;52.278;6.808;2024-02-23T07:22:19;10.00;;;3.40;;
68870;SDS011;55906;52.278;6.808;2024-02-23T07:24:46;10.05;;;3.70;;
68870;SDS011;55906;52.278;6.808;2024-02-23T07:27:15;9.48;;;4.10;;
68870;SDS011;55906;52.278;6.808;2024-02-23T07:29:42;5.43;;;3.63;;
68870;SDS011;55906;52.278;6.808;2024-02-23T07:32:09;6.22;;;3.72;;
68870;SDS011;55906;52.278;6.808;2024-02-23T07:34:36;7.60;;;3.70;;
68870;SDS011;55906;52.278;6.808;2024-02-23T07:37:03;8.90;;;3.97;;
68870;SDS011;55906;52.278;6.808;2024-02-23T07:39:31;7.55;;;3.50;;
68870;SDS011;55906;52.278;6.808;2024-02-23T07:41:58;8.70;;;3.67;;
68870;SDS011;55906;52.278;6.808;2024-02-23T07:44:25;6.63;;;4.40;;
68870;SDS011;55906;52.278;6.808;2024-02-23T07:46:52;6.90;;;3.60;;
68870;SDS011;55906;52.278;6.808;2024-02-23T07:49:20;12.35;;;3.75;;
68870;SDS011;55906;52.278;6.808;2024-02-23T07:51:47;7.60;;;3.33;;
68870;SDS011;55906;52.278;6.808;2024-02-23T07:54:14;6.73;;;3.57;;
68870;SDS011;55906;52.278;6.808;2024-02-23T07:56:43;10.35;;;3.70;;
68870;SDS011;55906;52.278;6.808;2024-02-23T07:59:09;7.65;;;3.38;;
68870;SDS011;55906;52.278;6.808;2024-02-23T08:01:36;9.53;;;3.80;;
68870;SDS011;55906;52.278;6.808;2024-02-23T08:04:05;5.75;;;3.60;;
68870;SDS011;55906;52.278;6.808;2024-02-23T08:06:32;7.60;;;3.97;;
68870;SDS011;55906;52.278;6.808;2024-02-23T08:08:58;10.18;;;3.60;;
68870;SDS011;55906;52.278;6.808;2024-02-23T08:11:25;7.93;;;3.03;;
68870;SDS011;55906;52.278;6.808;2024-02-23T08:13:54;7.55;;;3.75;;
68870;SDS011;55906;52.278;6.808;2024-02-23T08:16:20;6.88;;;3.90;;
68870;SDS011;55906;52.278;6.808;2024-02-23T08:18:47;6.27;;;3.67;;
68870;SDS011;55906;52.278;6.808;2024-02-23T08:21:14;8.00;;;4.47;;
68870;SDS011;55906;52.278;6.808;2024-02-23T08:23:41;8.00;;;3.65;;
68870;SDS011;55906;52.278;6.808;2024-02-23T08:26:07;6.63;;;3.67;;
68870;SDS011;55906;52.278;6.808;2024-02-23T08:28:35;8.50;;;3.10;;
68870;SDS011;55906;52.278;6.808;2024-02-23T08:31:03;6.05;;;3.53;;
68870;SDS011;55906;52.278;6.808;2024-02-23T08:33:30;7.90;;;3.85;;
68870;SDS011;55906;52.278;6.808;2024-02-23T08:35:57;7.20;;;3.42;;
68870;SDS011;55906;52.278;6.808;2024-02-23T08:38:24;9.83;;;3.57;;
68870;SDS011;55906;52.278;6.808;2024-02-23T08:40:50;6.45;;;3.20;;
68870;SDS011;55906;52.278;6.808;2024-02-23T08:43:17;7.38;;;3.40;;
68870;SDS011;55906;52.278;6.808;2024-02-23T08:45:45;6.10;;;3.33;;
68870;SDS011;55906;52.278;6.808;2024-02-23T08:48:13;8.13;;;3.67;;
68870;SDS011;55906;52.278;6.808;2024-02-23T08:50:40;6.60;;;3.42;;
68870;SDS011;55906;52.278;6.808;2024-02-23T08:53:07;8.07;;;3.53;;
68870;SDS011;55906;52.278;6.808;2024-02-23T08:55:33;5.03;;;3.38;;
68870;SDS011;55906;52.278;6.808;2024-02-23T08:58:00;6.65;;;3.67;;
68870;SDS011;55906;52.278;6.808;2024-02-23T09:00:27;8.30;;;3.65;;
68870;SDS011;55906;52.278;6.808;2024-02-23T09:02:54;8.63;;;3.40;;
68870;SDS011;55906;52.278;6.808;2024-02-23T09:05:22;5.90;;;3.42;;
68870;SDS011;55906;52.278;6.808;2024-02-23T09:07:49;7.47;;;3.20;;
68870;SDS011;55906;52.278;6.808;2024-02-23T09:10:16;7.05;;;3.30;;
68870;SDS011;55906;52.278;6.808;2024-02-23T09:12:44;9.20;;;3.47;;
68870;SDS011;55906;52.278;6.808;2024-02-23T09:15:10;7.25;;;3.17;;
68870;SDS011;55906;52.278;6.808;2024-02-23T09:17:37;9.25;;;3.45;;
68870;SDS011;55906;52.278;6.808;2024-02-23T09:20:06;5.77;;;3.27;;
68870;SDS011;55906;52.278;6.808;2024-02-23T09:22:35;5.80;;;3.00;;
68870;SDS011;55906;52.278;6.808;2024-02-23T09:25:02;5.63;;;3.38;;
68870;SDS011;55906;52.278;6.808;2024-02-23T09:27:30;9.63;;;3.30;;
68870;SDS011;55906;52.278;6.808;2024-02-23T09:29:57;7.07;;;3.33;;
68870;SDS011;55906;52.278;6.808;2024-02-23T09:32:24;10.82;;;3.25;;
68870;SDS011;55906;52.278;6.808;2024-02-23T09:34:50;6.72;;;3.30;;
68870;SDS011;55906;52.278;6.808;2024-02-23T09:37:17;6.00;;;3.30;;
68870;SDS011;55906;52.278;6.808;2024-02-23T09:39:45;8.57;;;3.40;;
68870;SDS011;55906;52.278;6.808;2024-02-23T09:42:12;8.73;;;3.40;;
68870;SDS011;55906;52.278;6.808;2024-02-23T09:44:39;7.50;;;2.92;;
68870;SDS011;55906;52.278;6.808;2024-02-23T09:47:10;5.35;;;3.10;;
68870;SDS011;55906;52.278;6.808;2024-02-23T09:49:39;7.32;;;2.97;;
68870;SDS011;55906;52.278;6.808;2024-02-23T09:52:07;6.78;;;2.90;;
68870;SDS011;55906;52.278;6.808;2024-02-23T09:54:34;6.63;;;3.57;;
68870;SDS011;55906;52.278;6.808;2024-02-23T09:57:04;9.90;;;3.55;;
68870;SDS011;55906;52.278;6.808;2024-02-23T09:59:34;6.82;;;2.90;;
68870;SDS011;55906;52.278;6.808;2024-02-23T10:02:01;5.30;;;2.70;;
68870;SDS011;55906;52.278;6.808;2024-02-23T10:04:29;10.48;;;3.60;;
68870;SDS011;55906;52.278;6.808;2024-02-23T10:06:56;10.57;;;3.30;;
68870;SDS011;55906;52.278;6.808;2024-02-23T10:09:23;6.30;;;3.67;;
68870;SDS011;55906;52.278;6.808;2024-02-23T10:11:51;8.80;;;3.30;;
68870;SDS011;55906;52.278;6.808;2024-02-23T10:14:20;5.70;;;3.20;;
68870;SDS011;55906;52.278;6.808;2024-02-23T10:16:47;4.70;;;3.13;;
68870;SDS011;55906;52.278;6.808;2024-02-23T10:19:18;7.82;;;3.17;;
68870;SDS011;55906;52.278;6.808;2024-02-23T10:21:44;9.05;;;3.20;;
68870;SDS011;55906;52.278;6.808;2024-02-23T10:24:11;8.52;;;3.15;;
68870;SDS011;55906;52.278;6.808;2024-02-23T10:26:38;8.82;;;3.38;;
68870;SDS011;55906;52.278;6.808;2024-02-23T10:29:05;5.90;;;2.92;;
68870;SDS011;55906;52.278;6.808;2024-02-23T10:31:35;9.38;;;3.22;;
68870;SDS011;55906;52.278;6.808;2024-02-23T10:34:03;7.53;;;3.28;;
68870;SDS011;55906;52.278;6.808;2024-02-23T10:36:34;7.33;;;3.87;;
68870;SDS011;55906;52.278;6.808;2024-02-23T10:39:04;7.50;;;3.10;;
68870;SDS011;55906;52.278;6.808;2024-02-23T10:41:35;7.10;;;3.00;;
68870;SDS011;55906;52.278;6.808;2024-02-23T10:44:03;7.30;;;3.42;;
68870;SDS011;55906;52.278;6.808;2024-02-23T10:46:31;9.43;;;3.78;;
68870;SDS011;55906;52.278;6.808;2024-02-23T10:48:59;9.80;;;3.33;;
68870;SDS011;55906;52.278;6.808;2024-02-23T10:51:28;7.50;;;3.63;;
68870;SDS011;55906;52.278;6.808;2024-02-23T10:53:55;6.80;;;3.70;;
68870;SDS011;55906;52.278;6.808;2024-02-23T10:56:23;6.63;;;3.87;;
68870;SDS011;55906;52.278;6.808;2024-02-23T10:58:51;9.52;;;3.45;;
68870;SDS011;55906;52.278;6.808;2024-02-23T11:01:18;6.90;;;3.53;;
68870;SDS011;55906;52.278;6.808;2024-02-23T11:03:48;9.88;;;2.90;;
68870;SDS011;55906;52.278;6.808;2024-02-23T11:06:17;4.93;;;3.00;;
68870;SDS011;55906;52.278;6.808;2024-02-23T11:08:46;8.55;;;3.67;;
68870;SDS011;55906;52.278;6.808;2024-02-23T11:11:15;5.07;;;3.20;;
68870;SDS011;55906;52.278;6.808;2024-02-23T11:13:44;10.90;;;3.17;;
68870;SDS011;55906;52.278;6.808;2024-02-23T11:16:12;7.20;;;3.28;;
68870;SDS011;55906;52.278;6.808;2024-02-23T11:18:48;8.95;;;3.30;;
68870;SDS011;55906;52.278;6.808;2024-02-23T11:21:16;10.60;;;3.50;;
68870;SDS011;55906;52.278;6.808;2024-02-23T11:23:44;6.68;;;3.50;;
68870;SDS011;55906;52.278;6.808;2024-02-23T11:26:11;7.27;;;3.43;;
68870;SDS011;55906;52.278;6.808;2024-02-23T11:28:42;12.93;;;4.53;;
68870;SDS011;55906;52.278;6.808;2024-02-23T11:31:13;8.30;;;3.53;;
68870;SDS011;55906;52.278;6.808;2024-02-23T11:33:42;8.18;;;3.35;;
68870;SDS011;55906;52.278;6.808;2024-02-23T11:36:21;6.83;;;3.67;;
68870;SDS011;55906;52.278;6.808;2024-02-23T11:38:53;7.88;;;3.90;;
68870;SDS011;55906;52.278;6.808;2024-02-23T11:41:22;9.00;;;3.75;;
68870;SDS011;55906;52.278;6.808;2024-02-23T11:43:50;7.10;;;3.90;;
68870;SDS011;55906;52.278;6.808;2024-02-23T11:46:17;7.23;;;3.83;;
68870;SDS011;55906;52.278;6.808;2024-02-23T11:48:44;8.45;;;4.20;;
68870;SDS011;55906;52.278;6.808;2024-02-23T11:51:12;6.05;;;3.25;;
68870;SDS011;55906;52.278;6.808;2024-02-23T11:53:40;5.55;;;2.90;;
68870;SDS011;55906;52.278;6.808;2024-02-23T11:56:08;12.90;;;4.00;;
68870;SDS011;55906;52.278;6.808;2024-02-23T11:58:36;4.95;;;2.90;;
68870;SDS011;55906;52.278;6.808;2024-02-23T12:01:03;7.15;;;3.60;;
68870;SDS011;55906;52.278;6.808;2024-02-23T12:03:32;4.70;;;2.80;;
68870;SDS011;55906;52.278;6.808;2024-02-23T12:05:59;6.37;;;2.93;;
68870;SDS011;55906;52.278;6.808;2024-02-23T12:08:26;9.43;;;3.35;;
68870;SDS011;55906;52.278;6.808;2024-02-23T12:10:55;7.65;;;3.33;;
68870;SDS011;55906;52.278;6.808;2024-02-23T12:13:22;8.48;;;3.40;;
68870;SDS011;55906;52.278;6.808;2024-02-23T12:15:52;5.93;;;3.30;;
68870;SDS011;55906;52.278;6.808;2024-02-23T12:18:21;6.65;;;4.07;;
68870;SDS011;55906;52.278;6.808;2024-02-23T12:20:51;5.75;;;4.07;;
68870;SDS011;55906;52.278;6.808;2024-02-23T12:23:18;5.87;;;3.37;;
68870;SDS011;55906;52.278;6.808;2024-02-23T12:25:52;5.38;;;3.33;;
68870;SDS011;55906;52.278;6.808;2024-02-23T12:28:20;7.82;;;3.35;;
68870;SDS011;55906;52.278;6.808;2024-02-23T12:30:57;7.32;;;3.60;;
68870;SDS011;55906;52.278;6.808;2024-02-23T12:33:26;5.90;;;3.42;;
68870;SDS011;55906;52.278;6.808;2024-02-23T12:35:54;7.88;;;3.30;;
68870;SDS011;55906;52.278;6.808;2024-02-23T12:38:21;6.88;;;3.55;;
68870;SDS011;55906;52.278;6.808;2024-02-23T12:40:48;7.10;;;3.20;;
68870;SDS011;55906;52.278;6.808;2024-02-23T12:43:15;6.97;;;3.75;;
68870;SDS011;55906;52.278;6.808;2024-02-23T12:45:43;8.85;;;3.88;;
68870;SDS011;55906;52.278;6.808;2024-02-23T12:48:14;7.50;;;3.75;;
68870;SDS011;55906;52.278;6.808;2024-02-23T12:50:41;5.50;;;3.47;;
68870;SDS011;55906;52.278;6.808;2024-02-23T12:53:08;10.43;;;3.30;;
68870;SDS011;55906;52.278;6.808;2024-02-23T12:55:35;6.20;;;3.97;;
68870;SDS011;55906;52.278;6.808;2024-02-23T12:58:03;9.60;;;3.85;;
68870;SDS011;55906;52.278;6.808;2024-02-23T13:00:29;8.73;;;3.63;;
68870;SDS011;55906;52.278;6.808;2024-02-23T13:02:58;7.97;;;3.63;;
68870;SDS011;55906;52.278;6.808;2024-02-23T13:05:24;7.85;;;3.72;;
68870;SDS011;55906;52.278;6.808;2024-02-23T13:07:51;6.63;;;3.33;;
68870;SDS011;55906;52.278;6.808;2024-02-23T13:10:18;7.25;;;3.60;;
68870;SDS011;55906;52.278;6.808;2024-02-23T13:12:45;9.00;;;3.70;;
68870;SDS011;55906;52.278;6.808;2024-02-23T13:15:12;10.15;;;3.88;;
68870;SDS011;55906;52.278;6.808;2024-02-23T13:17:39;9.63;;;3.83;;
68870;SDS011;55906;52.278;6.808;2024-02-23T13:20:08;8.48;;;4.55;;
68870;SDS011;55906;52.278;6.808;2024-02-23T13:22:37;7.53;;;4.50;;
68870;SDS011;55906;52.278;6.808;2024-02-23T13:25:05;8.00;;;4.05;;
68870;SDS011;55906;52.278;6.808;2024-02-23T13:27:32;6.23;;;4.20;;
68870;SDS011;55906;52.278;6.808;2024-02-23T13:29:59;6.78;;;3.58;;
68870;SDS011;55906;52.278;6.808;2024-02-23T13:32:25;6.18;;;3.75;;
68870;SDS011;55906;52.278;6.808;2024-02-23T13:34:52;6.07;;;3.70;;
68870;SDS011;55906;52.278;6.808;2024-02-23T13:37:20;7.85;;;3.92;;
68870;SDS011;55906;52.278;6.808;2024-02-23T13:39:47;7.00;;;4.03;;
68870;SDS011;55906;52.278;6.808;2024-02-23T13:42:14;6.38;;;3.53;;
68870;SDS011;55906;52.278;6.808;2024-02-23T13:44:41;6.70;;;3.60;;
68870;SDS011;55906;52.278;6.808;2024-02-23T13:47:08;8.70;;;4.00;;
68870;SDS011;55906;52.278;6.808;2024-02-23T13:49:37;7.88;;;3.92;;
68870;SDS011;55906;52.278;6.808;2024-02-23T13:52:04;7.22;;;4.22;;
68870;SDS011;55906;52.278;6.808;2024-02-23T13:54:33;12.50;;;4.45;;
68870;SDS011;55906;52.278;6.808;2024-02-23T13:56:59;11.98;;;4.10;;
68870;SDS011;55906;52.278;6.808;2024-02-23T13:59:26;7.35;;;4.22;;
68870;SDS011;55906;52.278;6.808;2024-02-23T14:01:53;8.00;;;3.22;;
68870;SDS011;55906;52.278;6.808;2024-02-23T14:04:20;6.07;;;3.60;;
68870;SDS011;55906;52.278;6.808;2024-02-23T14:06:47;8.75;;;3.53;;
68870;SDS011;55906;52.278;6.808;2024-02-23T14:09:14;6.80;;;3.53;;
68870;SDS011;55906;52.278;6.808;2024-02-23T14:11:42;7.93;;;3.43;;
68870;SDS011;55906;52.278;6.808;2024-02-23T14:14:10;6.68;;;3.80;;
68870;SDS011;55906;52.278;6.808;2024-02-23T14:16:37;9.18;;;4.05;;
68870;SDS011;55906;52.278;6.808;2024-02-23T14:19:03;5.32;;;3.75;;
68870;SDS011;55906;52.278;6.808;2024-02-23T14:21:30;8.87;;;3.50;;
68870;SDS011;55906;52.278;6.808;2024-02-23T14:23:57;6.70;;;3.78;;
68870;SDS011;55906;52.278;6.808;2024-02-23T14:26:24;6.45;;;3.88;;
68870;SDS011;55906;52.278;6.808;2024-02-23T14:28:52;8.35;;;3.95;;
68870;SDS011;55906;52.278;6.808;2024-02-23T14:31:19;10.63;;;3.67;;
68870;SDS011;55906;52.278;6.808;2024-02-23T14:33:46;5.90;;;3.42;;
68870;SDS011;55906;52.278;6.808;2024-02-23T14:36:15;8.07;;;3.88;;
68870;SDS011;55906;52.278;6.808;2024-02-23T14:38:42;6.03;;;3.33;;
68870;SDS011;55906;52.278;6.808;2024-02-23T14:41:09;9.25;;;3.72;;
68870;SDS011;55906;52.278;6.808;2024-02-23T14:43:36;7.82;;;3.60;;
68870;SDS011;55906;52.278;6.808;2024-02-23T14:46:05;7.18;;;3.60;;